createdAt,value
2017-12-06T00:01:31.584Z,4.70
2017-12-06T00:04:00.672Z,4.60
2017-12-06T00:06:29.020Z,4.60
2017-12-06T00:08:58.101Z,4.60
2017-12-06T00:11:26.442Z,4.60
2017-12-06T00:14:00.429Z,4.60
2017-12-06T00:16:28.760Z,4.60
2017-12-06T00:18:57.081Z,4.60
2017-12-06T00:21:25.430Z,4.60
2017-12-06T00:23:54.523Z,4.60
2017-12-06T00:26:22.906Z,4.50
2017-12-06T00:28:51.234Z,4.60
2017-12-06T00:31:19.570Z,4.60
2017-12-06T00:33:48.658Z,4.60
2017-12-06T00:36:16.993Z,4.60
2017-12-06T00:38:45.309Z,4.50
2017-12-06T00:41:13.646Z,4.60
2017-12-06T00:43:41.967Z,4.60
2017-12-06T00:46:10.363Z,4.60
2017-12-06T00:48:38.656Z,4.60
2017-12-06T00:51:06.991Z,4.60
2017-12-06T00:53:35.306Z,4.60
2017-12-06T00:56:03.614Z,4.60
2017-12-06T00:58:32.717Z,4.60
2017-12-06T01:01:01.027Z,4.60
2017-12-06T01:03:30.152Z,4.60
2017-12-06T01:05:59.232Z,4.60
2017-12-06T01:08:27.565Z,4.60
2017-12-06T01:10:55.882Z,4.70
2017-12-06T01:13:24.241Z,4.60
2017-12-06T01:15:52.552Z,4.60
2017-12-06T01:18:21.657Z,4.60
2017-12-06T01:20:50.744Z,4.50
2017-12-06T01:23:19.841Z,4.60
2017-12-06T01:25:48.136Z,4.60
2017-12-06T01:28:17.229Z,4.50
2017-12-06T01:30:46.301Z,4.60
2017-12-06T01:33:14.625Z,4.60
2017-12-06T01:35:42.927Z,4.60
2017-12-06T01:38:11.273Z,4.60
2017-12-06T01:40:39.573Z,4.60
2017-12-06T01:43:07.896Z,4.60
2017-12-06T01:45:36.980Z,4.60
2017-12-06T01:48:05.324Z,4.60
2017-12-06T01:50:33.627Z,4.60
2017-12-06T01:53:01.929Z,4.60
2017-12-06T01:55:30.259Z,4.70
2017-12-06T01:57:58.572Z,4.60
2017-12-06T02:00:26.912Z,4.60
2017-12-06T02:02:55.225Z,4.60
2017-12-06T02:05:23.561Z,4.60
2017-12-06T02:07:51.911Z,4.60
2017-12-06T02:10:20.997Z,4.60
2017-12-06T02:12:49.302Z,4.60
2017-12-06T02:15:17.627Z,4.60
2017-12-06T02:17:45.937Z,4.60
2017-12-06T02:20:15.025Z,4.60
2017-12-06T02:22:43.344Z,4.60
2017-12-06T02:25:11.682Z,4.60
2017-12-06T02:27:39.981Z,4.60
2017-12-06T02:30:08.325Z,4.60
2017-12-06T02:32:36.646Z,4.70
2017-12-06T02:35:04.981Z,4.70
2017-12-06T02:37:33.289Z,4.60
2017-12-06T02:40:14.010Z,4.60
2017-12-06T02:42:54.268Z,4.60
2017-12-06T02:45:28.413Z,4.60
2017-12-06T02:47:56.721Z,4.60
2017-12-06T02:50:25.150Z,4.60
2017-12-06T02:52:53.468Z,4.60
2017-12-06T02:55:22.561Z,4.60
2017-12-06T02:57:51.669Z,4.50
2017-12-06T03:00:20.773Z,4.60
2017-12-06T03:02:49.865Z,4.60
2017-12-06T03:05:18.229Z,4.50
2017-12-06T03:07:47.308Z,4.60
2017-12-06T03:10:15.637Z,4.50
2017-12-06T03:12:43.980Z,4.50
2017-12-06T03:15:12.296Z,4.60
2017-12-06T03:17:40.636Z,4.60
2017-12-06T03:20:09.699Z,4.60
2017-12-06T03:22:38.045Z,4.60
2017-12-06T03:25:06.359Z,4.60
2017-12-06T03:27:34.716Z,4.60
2017-12-06T03:30:03.030Z,4.60
2017-12-06T03:32:31.361Z,4.60
2017-12-06T03:34:59.669Z,4.60
2017-12-06T03:37:28.008Z,4.60
2017-12-06T03:39:56.309Z,4.50
2017-12-06T03:42:24.632Z,4.60
2017-12-06T03:44:52.947Z,4.60
2017-12-06T03:47:21.256Z,4.50
2017-12-06T03:49:49.584Z,4.60
2017-12-06T03:52:18.653Z,4.50
2017-12-06T03:54:46.988Z,4.50
2017-12-06T03:57:15.294Z,4.60
2017-12-06T03:59:43.632Z,4.60
2017-12-06T04:02:11.944Z,4.50
2017-12-06T04:04:40.291Z,4.50
2017-12-06T04:07:08.639Z,4.60
2017-12-06T04:09:37.726Z,4.60
2017-12-06T04:12:06.055Z,4.60
2017-12-06T04:14:34.396Z,4.60
2017-12-06T04:17:03.468Z,4.60
2017-12-06T04:19:31.795Z,4.60
2017-12-06T04:22:00.114Z,4.60
2017-12-06T04:24:28.435Z,4.50
2017-12-06T04:26:57.497Z,4.50
2017-12-06T04:29:25.816Z,4.50
2017-12-06T04:31:54.113Z,4.60
2017-12-06T04:34:22.442Z,4.50
2017-12-06T04:36:50.739Z,4.50
2017-12-06T04:39:19.811Z,4.50
2017-12-06T04:41:48.157Z,4.60
2017-12-06T04:44:16.465Z,4.50
2017-12-06T04:46:44.805Z,4.60
2017-12-06T04:49:13.108Z,4.50
2017-12-06T04:51:41.434Z,4.50
2017-12-06T04:54:10.512Z,4.50
2017-12-06T04:56:38.839Z,4.50
2017-12-06T04:59:07.158Z,4.60
2017-12-06T05:01:35.483Z,4.60
2017-12-06T05:04:03.775Z,4.60
2017-12-06T05:06:32.104Z,4.60
2017-12-06T05:09:00.400Z,4.60
2017-12-06T05:11:29.515Z,4.60
2017-12-06T05:13:57.817Z,4.60
2017-12-06T05:16:26.115Z,4.70
2017-12-06T05:18:54.435Z,4.70
2017-12-06T05:21:23.490Z,4.70
2017-12-06T05:23:51.815Z,4.60
2017-12-06T05:26:20.128Z,4.60
2017-12-06T05:28:48.472Z,4.60
2017-12-06T05:31:16.773Z,4.60
2017-12-06T05:33:45.107Z,4.70
2017-12-06T05:36:14.172Z,4.70
2017-12-06T05:38:42.496Z,4.70
2017-12-06T05:41:10.807Z,4.70
2017-12-06T05:43:39.152Z,4.70
2017-12-06T05:46:07.453Z,4.70
2017-12-06T05:48:35.787Z,4.60
2017-12-06T05:51:04.095Z,4.60
2017-12-06T05:53:32.434Z,4.70
2017-12-06T05:56:01.523Z,4.60
2017-12-06T05:58:29.844Z,4.60
2017-12-06T06:00:58.152Z,4.70
2017-12-06T06:03:26.475Z,4.60
2017-12-06T06:05:54.791Z,4.70
2017-12-06T06:08:23.104Z,4.70
2017-12-06T06:10:51.414Z,4.70
2017-12-06T06:13:20.507Z,4.70
2017-12-06T06:15:49.589Z,4.70
2017-12-06T06:18:17.903Z,4.70
2017-12-06T06:20:47.024Z,4.70
2017-12-06T06:23:15.310Z,4.70
2017-12-06T06:25:43.632Z,4.70
2017-12-06T06:28:12.716Z,4.70
2017-12-06T06:30:41.043Z,4.70
2017-12-06T06:33:09.350Z,4.70
2017-12-06T06:35:37.674Z,4.70
2017-12-06T06:38:06.747Z,4.70
2017-12-06T06:40:35.072Z,4.70
2017-12-06T06:43:03.384Z,4.70
2017-12-06T06:45:31.713Z,4.70
2017-12-06T06:48:00.036Z,4.60
2017-12-06T06:50:28.360Z,4.60
2017-12-06T06:52:57.438Z,4.60
2017-12-06T06:55:26.556Z,4.60
2017-12-06T06:57:55.623Z,4.60
2017-12-06T07:00:23.932Z,4.60
2017-12-06T07:02:52.275Z,4.70
2017-12-06T07:05:20.602Z,4.70
2017-12-06T07:07:48.957Z,4.70
2017-12-06T07:10:17.275Z,4.70
2017-12-06T07:12:45.609Z,4.60
2017-12-06T07:15:13.917Z,4.70
2017-12-06T07:17:42.257Z,4.70
2017-12-06T07:20:10.560Z,4.70
2017-12-06T07:22:39.651Z,4.70
2017-12-06T07:25:08.723Z,4.70
2017-12-06T07:27:37.044Z,4.70
2017-12-06T07:30:05.371Z,4.70
2017-12-06T07:32:33.700Z,4.70
2017-12-06T07:35:02.030Z,4.70
2017-12-06T07:37:30.356Z,4.70
2017-12-06T07:39:58.681Z,4.70
2017-12-06T07:42:26.987Z,4.70
2017-12-06T07:44:55.313Z,4.60
2017-12-06T07:47:23.622Z,4.70
2017-12-06T07:49:51.944Z,4.70
2017-12-06T07:52:20.240Z,4.80
2017-12-06T07:54:48.562Z,4.80
2017-12-06T07:57:16.860Z,4.70
2017-12-06T07:59:45.184Z,4.70
2017-12-06T08:02:13.508Z,4.70
2017-12-06T08:04:41.833Z,4.70
2017-12-06T08:07:10.143Z,4.70
2017-12-06T08:09:38.489Z,4.70
2017-12-06T08:12:06.797Z,4.70
2017-12-06T08:14:35.135Z,4.80
2017-12-06T08:17:03.473Z,4.80
2017-12-06T08:19:31.778Z,4.80
2017-12-06T08:22:00.864Z,4.80
2017-12-06T08:24:29.928Z,4.80
2017-12-06T08:26:58.244Z,4.80
2017-12-06T08:29:27.316Z,4.90
2017-12-06T08:31:55.644Z,4.90
2017-12-06T08:34:23.945Z,4.90
2017-12-06T08:36:52.266Z,4.80
2017-12-06T08:39:20.585Z,4.80
2017-12-06T08:41:49.656Z,4.80
2017-12-06T08:44:18.753Z,4.80
2017-12-06T08:46:47.055Z,4.80
2017-12-06T08:49:15.385Z,4.80
2017-12-06T08:51:43.687Z,4.90
2017-12-06T08:54:12.015Z,4.90
2017-12-06T08:56:40.308Z,4.80
2017-12-06T08:59:08.637Z,4.90
2017-12-06T09:01:36.941Z,4.90
2017-12-06T09:04:05.274Z,4.90
2017-12-06T09:06:34.350Z,4.90
2017-12-06T09:09:02.680Z,4.90
2017-12-06T09:11:30.980Z,5.00
2017-12-06T09:13:59.340Z,5.00
2017-12-06T09:16:27.639Z,4.90
2017-12-06T09:18:55.935Z,4.90
2017-12-06T09:21:24.263Z,5.00
2017-12-06T09:23:52.568Z,4.90
2017-12-06T09:26:20.897Z,4.90
2017-12-06T09:28:49.969Z,5.00
2017-12-06T09:31:18.300Z,5.00
2017-12-06T09:33:46.602Z,5.00
2017-12-06T09:36:14.928Z,5.00
2017-12-06T09:38:44.012Z,5.00
2017-12-06T09:41:12.335Z,5.00
2017-12-06T09:43:40.635Z,5.00
2017-12-06T09:46:08.964Z,5.00
2017-12-06T09:48:37.279Z,5.00
2017-12-06T09:51:05.593Z,5.00
2017-12-06T09:53:34.679Z,5.10
2017-12-06T09:56:03.000Z,5.00
2017-12-06T09:58:33.277Z,5.10
2017-12-06T10:01:01.606Z,5.10
2017-12-06T10:03:30.701Z,5.10
2017-12-06T10:05:59.037Z,5.10
2017-12-06T10:08:27.377Z,5.10
2017-12-06T10:10:55.675Z,5.10
2017-12-06T10:13:24.001Z,5.10
2017-12-06T10:15:53.069Z,5.10
2017-12-06T10:18:21.557Z,5.10
2017-12-06T10:20:49.864Z,5.10
2017-12-06T10:23:18.952Z,5.20
2017-12-06T10:25:48.025Z,5.10
2017-12-06T10:28:16.344Z,5.10
2017-12-06T10:30:44.642Z,5.10
2017-12-06T10:33:13.001Z,5.10
2017-12-06T10:35:41.297Z,5.20
2017-12-06T10:38:09.632Z,5.20
2017-12-06T10:40:38.728Z,5.20
2017-12-06T10:43:07.086Z,5.20
2017-12-06T10:45:35.386Z,5.20
2017-12-06T10:48:03.737Z,5.20
2017-12-06T10:50:32.044Z,5.20
2017-12-06T10:53:00.377Z,5.30
2017-12-06T10:55:28.667Z,5.20
2017-12-06T10:57:57.045Z,5.20
2017-12-06T11:00:26.140Z,5.20
2017-12-06T11:02:54.472Z,5.20
2017-12-06T11:05:23.550Z,5.30
2017-12-06T11:07:51.890Z,5.20
2017-12-06T11:10:20.186Z,5.20
2017-12-06T11:12:48.522Z,5.20
2017-12-06T11:15:16.828Z,5.20
2017-12-06T11:17:45.136Z,5.20
2017-12-06T11:20:13.462Z,5.20
2017-12-06T11:22:41.788Z,5.20
2017-12-06T11:25:10.115Z,5.20
2017-12-06T11:27:38.416Z,5.30
2017-12-06T11:30:06.756Z,5.30
2017-12-06T11:32:35.051Z,5.30
2017-12-06T11:35:03.388Z,5.20
2017-12-06T11:37:31.688Z,5.30
2017-12-06T11:40:00.022Z,5.30
2017-12-06T11:42:28.328Z,5.30
2017-12-06T11:44:57.419Z,5.30
2017-12-06T11:47:26.497Z,5.40
2017-12-06T11:49:54.832Z,5.40
2017-12-06T11:52:23.133Z,5.40
2017-12-06T11:54:51.452Z,5.40
2017-12-06T11:57:20.528Z,5.40
2017-12-06T11:59:48.840Z,5.40
2017-12-06T12:02:17.971Z,5.40
2017-12-06T12:04:46.251Z,5.40
2017-12-06T12:07:14.571Z,5.40
2017-12-06T12:09:42.882Z,5.50
2017-12-06T12:12:11.208Z,5.50
2017-12-06T12:14:39.510Z,5.50
2017-12-06T12:17:08.610Z,5.40
2017-12-06T12:19:36.921Z,5.50
2017-12-06T12:22:05.264Z,5.50
2017-12-06T12:24:33.572Z,5.40
2017-12-06T12:27:01.927Z,5.40
2017-12-06T12:29:30.997Z,5.50
2017-12-06T12:31:59.306Z,5.50
2017-12-06T12:34:28.417Z,5.60
2017-12-06T12:36:56.732Z,5.60
2017-12-06T12:39:25.080Z,5.60
2017-12-06T12:41:53.392Z,5.60
2017-12-06T12:44:21.726Z,5.60
2017-12-06T12:46:50.036Z,5.60
2017-12-06T12:49:18.368Z,5.60
2017-12-06T12:51:47.530Z,5.70
2017-12-06T12:54:15.862Z,5.70
2017-12-06T12:56:44.192Z,5.60
2017-12-06T12:59:12.519Z,5.60
2017-12-06T13:01:40.829Z,5.70
2017-12-06T13:04:09.176Z,5.60
2017-12-06T13:06:37.494Z,5.60
2017-12-06T13:09:05.813Z,5.60
2017-12-06T13:11:34.884Z,5.60
2017-12-06T13:14:03.221Z,5.60
2017-12-06T13:16:31.605Z,5.60
2017-12-06T13:18:59.933Z,5.60
2017-12-06T13:21:29.008Z,5.70
2017-12-06T13:23:57.325Z,5.60
2017-12-06T13:26:26.404Z,5.60
2017-12-06T13:28:54.728Z,5.60
2017-12-06T13:31:23.065Z,5.60
2017-12-06T13:33:51.393Z,5.60
2017-12-06T13:36:19.716Z,5.70
2017-12-06T13:38:48.054Z,5.70
2017-12-06T13:41:16.365Z,5.70
2017-12-06T13:43:44.676Z,5.70
2017-12-06T13:46:13.017Z,5.70
2017-12-06T13:48:41.331Z,5.70
2017-12-06T13:51:10.443Z,5.70
2017-12-06T13:53:38.757Z,5.70
2017-12-06T13:56:07.088Z,5.70
2017-12-06T13:58:35.428Z,5.60
2017-12-06T14:01:03.770Z,5.60
2017-12-06T14:03:32.079Z,5.70
2017-12-06T14:06:00.411Z,5.70
2017-12-06T14:08:29.479Z,5.60
2017-12-06T14:10:57.816Z,5.60
2017-12-06T14:13:26.126Z,5.70
2017-12-06T14:15:54.453Z,5.70
2017-12-06T14:18:22.747Z,5.70
2017-12-06T14:20:51.079Z,5.70
2017-12-06T14:23:19.379Z,5.70
2017-12-06T14:25:47.712Z,5.70
2017-12-06T14:28:16.021Z,5.60
2017-12-06T14:30:45.108Z,5.60
2017-12-06T14:33:14.205Z,5.60
2017-12-06T14:35:43.519Z,5.60
2017-12-06T14:38:11.857Z,5.60
2017-12-06T14:40:40.176Z,5.60
2017-12-06T14:43:08.494Z,5.60
2017-12-06T14:45:36.798Z,5.60
2017-12-06T14:48:05.916Z,5.60
2017-12-06T14:50:34.996Z,5.60
2017-12-06T14:53:03.344Z,5.60
2017-12-06T14:55:31.657Z,5.60
2017-12-06T14:57:59.987Z,5.50
2017-12-06T15:00:28.300Z,5.50
2017-12-06T15:02:56.646Z,5.40
2017-12-06T15:05:24.956Z,5.50
2017-12-06T15:07:53.386Z,5.50
2017-12-06T15:10:21.697Z,5.40
2017-12-06T15:12:50.040Z,5.40
2017-12-06T15:15:18.372Z,5.40
2017-12-06T15:17:46.709Z,5.40
2017-12-06T15:20:15.021Z,5.40
2017-12-06T15:22:43.364Z,5.40
2017-12-06T15:25:11.689Z,5.50
2017-12-06T15:27:40.817Z,5.40
2017-12-06T15:30:09.143Z,5.40
2017-12-06T15:32:37.515Z,5.40
2017-12-06T15:35:05.838Z,5.30
2017-12-06T15:37:34.927Z,5.30
2017-12-06T15:40:03.274Z,5.30
2017-12-06T15:42:31.653Z,5.40
2017-12-06T15:44:59.997Z,5.30
2017-12-06T15:47:28.308Z,5.30
2017-12-06T15:49:56.648Z,5.30
2017-12-06T15:52:24.965Z,5.30
2017-12-06T15:54:53.317Z,5.30
2017-12-06T15:57:21.611Z,5.30
2017-12-06T15:59:49.988Z,5.20
2017-12-06T16:02:18.316Z,5.20
2017-12-06T16:04:47.398Z,5.20
2017-12-06T16:07:15.724Z,5.20
2017-12-06T16:09:44.052Z,5.20
2017-12-06T16:12:13.188Z,5.10
2017-12-06T16:14:41.519Z,5.10
2017-12-06T16:17:09.840Z,5.20
2017-12-06T16:19:38.187Z,5.20
2017-12-06T16:22:06.508Z,5.10
2017-12-06T16:24:34.811Z,5.10
2017-12-06T16:27:03.156Z,5.20
2017-12-06T16:29:32.231Z,5.10
2017-12-06T16:32:00.572Z,5.00
2017-12-06T16:34:28.880Z,5.00
2017-12-06T16:40:03.627Z,5.00
2017-12-06T16:42:32.761Z,5.00
2017-12-06T16:45:01.842Z,5.10
2017-12-06T16:47:30.942Z,5.10
2017-12-06T16:50:00.021Z,5.10
2017-12-06T16:52:28.340Z,5.00
2017-12-06T16:54:56.659Z,5.00
2017-12-06T16:57:24.997Z,5.00
2017-12-06T16:59:53.314Z,5.00
2017-12-06T17:02:21.619Z,5.10
2017-12-06T17:04:49.961Z,5.10
2017-12-06T17:07:18.270Z,5.10
2017-12-06T17:09:46.614Z,5.10
2017-12-06T17:12:14.917Z,5.10
2017-12-06T17:14:43.251Z,5.10
2017-12-06T17:17:11.559Z,5.00
2017-12-06T17:19:39.899Z,5.00
2017-12-06T17:22:08.205Z,5.00
2017-12-06T17:24:36.570Z,5.00
2017-12-06T17:27:04.866Z,5.00
2017-12-06T17:29:44.912Z,5.00
2017-12-06T17:32:13.903Z,5.00
2017-12-06T17:34:42.275Z,4.90
2017-12-06T17:37:10.564Z,5.00
2017-12-06T17:39:38.908Z,5.00
2017-12-06T17:42:07.308Z,5.00
2017-12-06T17:44:35.644Z,5.00
2017-12-06T17:47:04.733Z,5.00
2017-12-06T17:49:33.087Z,5.00
2017-12-06T17:52:01.394Z,5.00
2017-12-06T17:54:29.732Z,5.00
2017-12-06T17:56:58.039Z,5.00
2017-12-06T17:59:26.384Z,5.00
2017-12-06T18:01:54.701Z,5.00
2017-12-06T18:04:23.072Z,5.00
2017-12-06T18:06:52.181Z,5.00
2017-12-06T18:09:20.522Z,5.00
2017-12-06T18:11:48.868Z,4.90
2017-12-06T18:14:17.948Z,5.00
2017-12-06T18:16:47.060Z,5.00
2017-12-06T18:19:16.131Z,5.00
2017-12-06T18:21:44.463Z,5.00
2017-12-06T18:24:12.779Z,5.00
2017-12-06T18:26:41.105Z,4.90
2017-12-06T18:29:10.168Z,4.90
2017-12-06T18:31:38.504Z,4.90
2017-12-06T18:34:06.814Z,5.00
2017-12-06T18:36:35.142Z,4.90
2017-12-06T18:39:03.452Z,4.90
2017-12-06T18:41:31.780Z,5.00
2017-12-06T18:44:00.852Z,5.00
2017-12-06T18:46:29.185Z,4.90
2017-12-06T18:48:57.489Z,4.90
2017-12-06T18:51:25.788Z,4.90
2017-12-06T18:53:54.114Z,4.90
2017-12-06T18:56:22.420Z,4.90
2017-12-06T18:58:50.744Z,4.80
2017-12-06T19:01:19.809Z,4.70
2017-12-06T19:03:48.130Z,4.70
2017-12-06T19:06:17.194Z,4.80
2017-12-06T19:08:45.524Z,4.80
2017-12-06T19:11:13.824Z,4.80
2017-12-06T19:13:42.150Z,4.90
2017-12-06T19:16:11.215Z,4.90
2017-12-06T19:18:39.532Z,4.80
2017-12-06T19:21:08.600Z,4.90
2017-12-06T19:23:36.941Z,4.90
2017-12-06T19:26:05.242Z,4.80
2017-12-06T19:28:33.555Z,4.80
2017-12-06T19:31:02.638Z,4.90
2017-12-06T19:33:30.963Z,4.90
2017-12-06T19:36:00.028Z,4.90
2017-12-06T19:38:29.114Z,4.90
2017-12-06T19:40:57.420Z,4.80
2017-12-06T19:43:25.748Z,4.80
2017-12-06T19:45:54.041Z,4.80
2017-12-06T19:48:22.389Z,4.80
2017-12-06T19:50:50.686Z,4.80
2017-12-06T19:53:18.985Z,4.80
2017-12-06T19:55:47.299Z,4.70
2017-12-06T19:58:15.603Z,4.70
2017-12-06T20:00:43.961Z,4.80
2017-12-06T20:03:12.257Z,4.80
2017-12-06T20:05:40.577Z,4.80
2017-12-06T20:08:09.639Z,4.70
2017-12-06T20:10:37.976Z,4.70
2017-12-06T20:13:06.280Z,4.70
2017-12-06T20:15:34.610Z,4.70
2017-12-06T20:18:03.680Z,4.80
2017-12-06T20:20:32.005Z,4.80
2017-12-06T20:23:00.309Z,4.80
2017-12-06T20:25:28.635Z,4.80
2017-12-06T20:27:56.932Z,4.80
2017-12-06T20:30:26.017Z,4.70
2017-12-06T20:32:55.091Z,4.80
2017-12-06T20:35:23.392Z,4.80
2017-12-06T20:37:52.480Z,4.80
2017-12-06T20:40:20.789Z,4.80
2017-12-06T20:42:49.130Z,4.70
2017-12-06T20:45:17.429Z,4.70
2017-12-06T20:47:46.517Z,4.80
2017-12-06T20:50:15.585Z,4.70
2017-12-06T20:52:43.926Z,4.70
2017-12-06T20:55:12.224Z,4.70
2017-12-06T20:57:40.558Z,4.70
2017-12-06T21:00:08.858Z,4.70
2017-12-06T21:02:37.193Z,4.70
2017-12-06T21:05:05.488Z,4.70
2017-12-06T21:07:34.580Z,4.60
2017-12-06T21:10:03.649Z,4.60
2017-12-06T21:12:31.981Z,4.50
2017-12-06T21:15:00.296Z,4.60
2017-12-06T21:17:28.603Z,4.60
2017-12-06T21:19:56.928Z,4.60
2017-12-06T21:22:25.232Z,4.60
2017-12-06T21:24:53.547Z,4.60
2017-12-06T21:27:22.621Z,4.60
2017-12-06T21:29:50.940Z,4.60
2017-12-06T21:32:19.257Z,4.60
2017-12-06T21:34:47.588Z,4.50
2017-12-06T21:37:16.649Z,4.40
2017-12-06T21:39:44.993Z,4.40
2017-12-06T21:42:14.004Z,4.50
2017-12-06T21:44:42.332Z,4.50
2017-12-06T21:47:11.392Z,4.50
2017-12-06T21:49:39.710Z,4.50
2017-12-06T21:52:08.821Z,4.50
2017-12-06T21:54:37.121Z,4.50
2017-12-06T21:57:05.424Z,4.50
2017-12-06T21:59:33.766Z,4.50
2017-12-06T22:02:02.058Z,4.50
2017-12-06T22:04:30.367Z,4.60
2017-12-06T22:06:58.664Z,4.50
2017-12-06T22:09:27.016Z,4.50
2017-12-06T22:11:55.322Z,4.50
2017-12-06T22:14:24.577Z,4.50
2017-12-06T22:16:52.863Z,4.40
2017-12-06T22:19:21.185Z,4.50
2017-12-06T22:21:50.266Z,4.40
2017-12-06T22:24:18.560Z,4.40
2017-12-06T22:26:47.647Z,4.40
2017-12-06T22:29:16.707Z,4.30
2017-12-06T22:31:45.029Z,4.30
2017-12-06T22:34:14.119Z,4.40
2017-12-06T22:36:43.194Z,4.40
2017-12-06T22:39:11.484Z,4.40
2017-12-06T22:41:43.460Z,4.30
2017-12-06T22:44:12.516Z,4.40
2017-12-06T22:46:40.807Z,4.30
2017-12-06T22:49:09.118Z,4.30
2017-12-06T22:51:37.428Z,4.30
2017-12-06T22:54:05.761Z,4.30
2017-12-06T22:56:34.052Z,4.20
2017-12-06T22:59:03.142Z,4.20
2017-12-06T23:01:32.195Z,4.30
2017-12-06T23:04:00.516Z,4.30
2017-12-06T23:06:29.576Z,4.30
2017-12-06T23:08:57.889Z,4.30
2017-12-06T23:11:26.944Z,4.30
2017-12-06T23:13:55.256Z,4.30
2017-12-06T23:16:24.326Z,4.30
2017-12-06T23:18:52.648Z,4.30
2017-12-06T23:21:20.941Z,4.30
2017-12-06T23:23:49.280Z,4.20
2017-12-06T23:26:17.575Z,4.20
2017-12-06T23:28:46.624Z,4.20
2017-12-06T23:31:14.949Z,4.20
2017-12-06T23:33:44.008Z,4.20
2017-12-06T23:36:12.343Z,4.20
2017-12-06T23:38:40.649Z,4.20
2017-12-06T23:41:08.974Z,4.20
2017-12-06T23:43:37.286Z,4.20
2017-12-06T23:46:05.597Z,4.30
2017-12-06T23:48:33.911Z,4.30
2017-12-06T23:51:03.005Z,4.20
2017-12-06T23:53:32.069Z,4.20
2017-12-06T23:56:00.388Z,4.20
2017-12-06T23:58:29.445Z,4.20
